sensor_id;sensor_type;location;lat;lon;timestamp;P1;durP1;ratioP1;P2;durP2;ratioP2
68353;SDS011;55274;43.060;25.618;2023-04-15T00:02:23;4.80;;;2.00;;
68353;SDS011;55274;43.060;25.618;2023-04-15T00:04:49;4.45;;;1.90;;
68353;SDS011;55274;43.060;25.618;2023-04-15T00:07:15;6.03;;;1.77;;
68353;SDS011;55274;43.060;25.618;2023-04-15T00:09:42;5.50;;;2.03;;
68353;SDS011;55274;43.060;25.618;2023-04-15T00:12:09;7.05;;;2.63;;
68353;SDS011;55274;43.060;25.618;2023-04-15T00:14:35;4.80;;;2.40;;
68353;SDS011;55274;43.060;25.618;2023-04-15T00:17:01;6.45;;;2.28;;
68353;SDS011;55274;43.060;25.618;2023-04-15T00:19:28;4.00;;;1.58;;
68353;SDS011;55274;43.060;25.618;2023-04-15T00:21:55;3.70;;;1.30;;
68353;SDS011;55274;43.060;25.618;2023-04-15T00:24:21;5.05;;;1.90;;
68353;SDS011;55274;43.060;25.618;2023-04-15T00:26:47;5.88;;;1.52;;
68353;SDS011;55274;43.060;25.618;2023-04-15T00:29:13;6.10;;;1.95;;
68353;SDS011;55274;43.060;25.618;2023-04-15T00:31:39;4.85;;;2.00;;
68353;SDS011;55274;43.060;25.618;2023-04-15T00:34:06;4.43;;;1.77;;
68353;SDS011;55274;43.060;25.618;2023-04-15T00:36:32;2.53;;;1.05;;
68353;SDS011;55274;43.060;25.618;2023-04-15T00:38:59;3.33;;;1.30;;
68353;SDS011;55274;43.060;25.618;2023-04-15T00:41:25;2.65;;;1.13;;
68353;SDS011;55274;43.060;25.618;2023-04-15T00:43:51;4.30;;;0.82;;
68353;SDS011;55274;43.060;25.618;2023-04-15T00:46:16;2.65;;;0.95;;
68353;SDS011;55274;43.060;25.618;2023-04-15T00:48:45;3.25;;;0.80;;
68353;SDS011;55274;43.060;25.618;2023-04-15T00:51:12;4.45;;;1.05;;
68353;SDS011;55274;43.060;25.618;2023-04-15T00:53:39;2.50;;;1.10;;
68353;SDS011;55274;43.060;25.618;2023-04-15T00:56:05;4.45;;;1.00;;
68353;SDS011;55274;43.060;25.618;2023-04-15T00:58:31;3.67;;;1.30;;
68353;SDS011;55274;43.060;25.618;2023-04-15T01:00:57;8.65;;;1.85;;
68353;SDS011;55274;43.060;25.618;2023-04-15T01:03:24;5.53;;;1.77;;
68353;SDS011;55274;43.060;25.618;2023-04-15T01:05:50;4.43;;;1.65;;
68353;SDS011;55274;43.060;25.618;2023-04-15T01:08:23;6.07;;;2.53;;
68353;SDS011;55274;43.060;25.618;2023-04-15T01:10:58;5.55;;;1.63;;
68353;SDS011;55274;43.060;25.618;2023-04-15T01:13:27;2.70;;;1.40;;
68353;SDS011;55274;43.060;25.618;2023-04-15T01:15:55;7.53;;;1.77;;
68353;SDS011;55274;43.060;25.618;2023-04-15T01:18:21;6.78;;;1.52;;
68353;SDS011;55274;43.060;25.618;2023-04-15T01:20:48;4.30;;;1.27;;
68353;SDS011;55274;43.060;25.618;2023-04-15T01:23:13;3.58;;;1.25;;
68353;SDS011;55274;43.060;25.618;2023-04-15T01:25:41;3.50;;;0.90;;
68353;SDS011;55274;43.060;25.618;2023-04-15T01:28:08;1.80;;;1.08;;
68353;SDS011;55274;43.060;25.618;2023-04-15T01:30:35;1.75;;;0.80;;
68353;SDS011;55274;43.060;25.618;2023-04-15T01:33:01;3.67;;;0.90;;
68353;SDS011;55274;43.060;25.618;2023-04-15T01:35:27;2.08;;;1.00;;
68353;SDS011;55274;43.060;25.618;2023-04-15T01:37:53;6.88;;;1.30;;
68353;SDS011;55274;43.060;25.618;2023-04-15T01:40:21;15.27;;;6.38;;
68353;SDS011;55274;43.060;25.618;2023-04-15T01:42:47;10.27;;;4.07;;
68353;SDS011;55274;43.060;25.618;2023-04-15T01:45:13;12.52;;;4.35;;
68353;SDS011;55274;43.060;25.618;2023-04-15T01:47:39;8.43;;;3.67;;
68353;SDS011;55274;43.060;25.618;2023-04-15T01:50:04;6.57;;;3.13;;
68353;SDS011;55274;43.060;25.618;2023-04-15T01:52:31;7.50;;;2.45;;
68353;SDS011;55274;43.060;25.618;2023-04-15T01:54:56;10.65;;;3.38;;
68353;SDS011;55274;43.060;25.618;2023-04-15T01:57:22;8.05;;;3.30;;
68353;SDS011;55274;43.060;25.618;2023-04-15T01:59:48;8.13;;;3.28;;
68353;SDS011;55274;43.060;25.618;2023-04-15T02:02:14;9.50;;;2.42;;
68353;SDS011;55274;43.060;25.618;2023-04-15T02:04:40;5.88;;;1.90;;
68353;SDS011;55274;43.060;25.618;2023-04-15T02:07:05;5.22;;;1.77;;
68353;SDS011;55274;43.060;25.618;2023-04-15T02:09:31;7.03;;;1.90;;
68353;SDS011;55274;43.060;25.618;2023-04-15T02:11:57;12.20;;;3.08;;
68353;SDS011;55274;43.060;25.618;2023-04-15T02:14:24;7.88;;;3.13;;
68353;SDS011;55274;43.060;25.618;2023-04-15T02:16:51;6.30;;;2.70;;
68353;SDS011;55274;43.060;25.618;2023-04-15T02:19:16;6.68;;;3.20;;
68353;SDS011;55274;43.060;25.618;2023-04-15T02:21:42;10.52;;;3.88;;
68353;SDS011;55274;43.060;25.618;2023-04-15T02:24:08;5.43;;;2.15;;
68353;SDS011;55274;43.060;25.618;2023-04-15T02:26:36;6.95;;;2.38;;
68353;SDS011;55274;43.060;25.618;2023-04-15T02:29:02;5.13;;;2.72;;
68353;SDS011;55274;43.060;25.618;2023-04-15T02:31:27;7.05;;;2.88;;
68353;SDS011;55274;43.060;25.618;2023-04-15T02:33:53;7.15;;;2.97;;
68353;SDS011;55274;43.060;25.618;2023-04-15T02:36:19;3.45;;;2.00;;
68353;SDS011;55274;43.060;25.618;2023-04-15T02:38:45;7.03;;;3.55;;
68353;SDS011;55274;43.060;25.618;2023-04-15T02:41:11;7.55;;;3.17;;
68353;SDS011;55274;43.060;25.618;2023-04-15T02:43:37;6.60;;;2.50;;
68353;SDS011;55274;43.060;25.618;2023-04-15T02:46:04;8.05;;;3.65;;
68353;SDS011;55274;43.060;25.618;2023-04-15T02:48:30;11.98;;;4.95;;
68353;SDS011;55274;43.060;25.618;2023-04-15T02:51:14;10.35;;;4.10;;
68353;SDS011;55274;43.060;25.618;2023-04-15T02:53:41;16.52;;;4.50;;
68353;SDS011;55274;43.060;25.618;2023-04-15T02:56:07;9.02;;;3.47;;
68353;SDS011;55274;43.060;25.618;2023-04-15T02:58:33;9.48;;;4.13;;
68353;SDS011;55274;43.060;25.618;2023-04-15T03:01:00;7.15;;;2.80;;
68353;SDS011;55274;43.060;25.618;2023-04-15T03:03:26;7.80;;;2.78;;
68353;SDS011;55274;43.060;25.618;2023-04-15T03:05:52;7.72;;;3.58;;
68353;SDS011;55274;43.060;25.618;2023-04-15T03:08:18;16.80;;;4.00;;
68353;SDS011;55274;43.060;25.618;2023-04-15T03:10:45;10.90;;;3.08;;
68353;SDS011;55274;43.060;25.618;2023-04-15T03:13:11;9.18;;;2.72;;
68353;SDS011;55274;43.060;25.618;2023-04-15T03:15:37;5.32;;;2.38;;
68353;SDS011;55274;43.060;25.618;2023-04-15T03:18:03;6.65;;;3.53;;
68353;SDS011;55274;43.060;25.618;2023-04-15T03:20:29;6.40;;;2.75;;
68353;SDS011;55274;43.060;25.618;2023-04-15T03:22:55;5.47;;;2.50;;
68353;SDS011;55274;43.060;25.618;2023-04-15T03:25:21;9.13;;;2.92;;
68353;SDS011;55274;43.060;25.618;2023-04-15T03:27:47;7.78;;;4.10;;
68353;SDS011;55274;43.060;25.618;2023-04-15T03:30:12;9.35;;;4.25;;
68353;SDS011;55274;43.060;25.618;2023-04-15T03:32:39;8.80;;;4.10;;
68353;SDS011;55274;43.060;25.618;2023-04-15T03:35:04;9.55;;;4.10;;
68353;SDS011;55274;43.060;25.618;2023-04-15T03:37:30;9.25;;;4.32;;
68353;SDS011;55274;43.060;25.618;2023-04-15T03:39:56;9.23;;;4.00;;
68353;SDS011;55274;43.060;25.618;2023-04-15T03:42:22;11.07;;;3.90;;
68353;SDS011;55274;43.060;25.618;2023-04-15T03:44:48;11.63;;;5.03;;
68353;SDS011;55274;43.060;25.618;2023-04-15T03:47:13;12.98;;;4.55;;
68353;SDS011;55274;43.060;25.618;2023-04-15T03:49:39;9.00;;;3.95;;
68353;SDS011;55274;43.060;25.618;2023-04-15T03:52:05;14.20;;;5.93;;
68353;SDS011;55274;43.060;25.618;2023-04-15T03:54:31;7.38;;;3.40;;
68353;SDS011;55274;43.060;25.618;2023-04-15T03:56:57;11.25;;;5.13;;
68353;SDS011;55274;43.060;25.618;2023-04-15T03:59:22;18.55;;;8.52;;
68353;SDS011;55274;43.060;25.618;2023-04-15T04:01:49;21.40;;;8.77;;
68353;SDS011;55274;43.060;25.618;2023-04-15T04:04:15;12.60;;;5.32;;
68353;SDS011;55274;43.060;25.618;2023-04-15T04:06:41;12.18;;;4.55;;
68353;SDS011;55274;43.060;25.618;2023-04-15T04:09:06;13.13;;;5.20;;
68353;SDS011;55274;43.060;25.618;2023-04-15T04:11:32;8.25;;;3.60;;
68353;SDS011;55274;43.060;25.618;2023-04-15T04:13:58;8.68;;;3.53;;
68353;SDS011;55274;43.060;25.618;2023-04-15T04:16:24;13.38;;;3.75;;
68353;SDS011;55274;43.060;25.618;2023-04-15T04:18:50;9.10;;;3.22;;
68353;SDS011;55274;43.060;25.618;2023-04-15T04:21:15;12.70;;;3.35;;
68353;SDS011;55274;43.060;25.618;2023-04-15T04:23:41;13.15;;;4.40;;
68353;SDS011;55274;43.060;25.618;2023-04-15T04:26:07;14.88;;;5.68;;
68353;SDS011;55274;43.060;25.618;2023-04-15T04:28:33;12.23;;;5.63;;
68353;SDS011;55274;43.060;25.618;2023-04-15T04:30:59;14.70;;;5.38;;
68353;SDS011;55274;43.060;25.618;2023-04-15T04:33:25;12.63;;;4.75;;
68353;SDS011;55274;43.060;25.618;2023-04-15T04:35:51;7.90;;;4.53;;
68353;SDS011;55274;43.060;25.618;2023-04-15T04:38:16;12.80;;;5.10;;
68353;SDS011;55274;43.060;25.618;2023-04-15T04:40:42;14.80;;;5.80;;
68353;SDS011;55274;43.060;25.618;2023-04-15T04:43:08;11.48;;;4.75;;
68353;SDS011;55274;43.060;25.618;2023-04-15T04:45:34;11.13;;;4.28;;
68353;SDS011;55274;43.060;25.618;2023-04-15T04:48:00;13.77;;;3.92;;
68353;SDS011;55274;43.060;25.618;2023-04-15T04:50:26;11.60;;;4.93;;
68353;SDS011;55274;43.060;25.618;2023-04-15T04:52:52;15.13;;;5.28;;
68353;SDS011;55274;43.060;25.618;2023-04-15T04:55:17;12.35;;;4.55;;
68353;SDS011;55274;43.060;25.618;2023-04-15T04:57:43;12.95;;;5.05;;
68353;SDS011;55274;43.060;25.618;2023-04-15T05:00:09;10.73;;;4.82;;
68353;SDS011;55274;43.060;25.618;2023-04-15T05:02:36;12.23;;;5.15;;
68353;SDS011;55274;43.060;25.618;2023-04-15T05:05:02;9.13;;;5.15;;
68353;SDS011;55274;43.060;25.618;2023-04-15T05:07:28;12.02;;;4.60;;
68353;SDS011;55274;43.060;25.618;2023-04-15T05:09:54;7.53;;;3.95;;
68353;SDS011;55274;43.060;25.618;2023-04-15T05:12:20;7.85;;;3.85;;
68353;SDS011;55274;43.060;25.618;2023-04-15T05:14:46;13.40;;;4.80;;
68353;SDS011;55274;43.060;25.618;2023-04-15T05:17:12;9.48;;;4.22;;
68353;SDS011;55274;43.060;25.618;2023-04-15T05:19:38;10.18;;;4.03;;
68353;SDS011;55274;43.060;25.618;2023-04-15T05:22:04;7.15;;;3.63;;
68353;SDS011;55274;43.060;25.618;2023-04-15T05:24:30;7.63;;;3.53;;
68353;SDS011;55274;43.060;25.618;2023-04-15T05:26:56;8.60;;;3.50;;
68353;SDS011;55274;43.060;25.618;2023-04-15T05:29:21;8.93;;;3.08;;
68353;SDS011;55274;43.060;25.618;2023-04-15T05:31:47;5.13;;;2.55;;
68353;SDS011;55274;43.060;25.618;2023-04-15T05:34:13;6.00;;;3.25;;
68353;SDS011;55274;43.060;25.618;2023-04-15T05:36:40;9.88;;;3.22;;
68353;SDS011;55274;43.060;25.618;2023-04-15T05:39:06;13.20;;;3.55;;
68353;SDS011;55274;43.060;25.618;2023-04-15T05:41:32;11.63;;;3.70;;
68353;SDS011;55274;43.060;25.618;2023-04-15T05:43:58;13.98;;;3.72;;
68353;SDS011;55274;43.060;25.618;2023-04-15T05:46:24;7.28;;;3.55;;
68353;SDS011;55274;43.060;25.618;2023-04-15T05:48:50;7.80;;;3.38;;
68353;SDS011;55274;43.060;25.618;2023-04-15T05:51:16;9.55;;;3.10;;
68353;SDS011;55274;43.060;25.618;2023-04-15T05:53:41;9.50;;;3.58;;
68353;SDS011;55274;43.060;25.618;2023-04-15T05:56:07;8.32;;;3.78;;
68353;SDS011;55274;43.060;25.618;2023-04-15T05:58:33;4.10;;;2.10;;
68353;SDS011;55274;43.060;25.618;2023-04-15T06:00:59;4.70;;;2.20;;
68353;SDS011;55274;43.060;25.618;2023-04-15T06:03:25;4.47;;;2.20;;
68353;SDS011;55274;43.060;25.618;2023-04-15T06:05:50;4.82;;;2.00;;
68353;SDS011;55274;43.060;25.618;2023-04-15T06:08:16;7.82;;;2.05;;
68353;SDS011;55274;43.060;25.618;2023-04-15T06:10:42;5.43;;;2.35;;
68353;SDS011;55274;43.060;25.618;2023-04-15T06:13:08;7.75;;;4.50;;
68353;SDS011;55274;43.060;25.618;2023-04-15T06:15:35;7.93;;;4.25;;
68353;SDS011;55274;43.060;25.618;2023-04-15T06:18:01;7.72;;;3.83;;
68353;SDS011;55274;43.060;25.618;2023-04-15T06:20:27;7.60;;;3.85;;
68353;SDS011;55274;43.060;25.618;2023-04-15T06:22:53;8.10;;;3.90;;
68353;SDS011;55274;43.060;25.618;2023-04-15T06:25:19;11.07;;;3.70;;
68353;SDS011;55274;43.060;25.618;2023-04-15T06:27:45;11.65;;;4.22;;
68353;SDS011;55274;43.060;25.618;2023-04-15T06:30:11;9.57;;;4.97;;
68353;SDS011;55274;43.060;25.618;2023-04-15T06:32:36;13.48;;;5.93;;
68353;SDS011;55274;43.060;25.618;2023-04-15T06:35:02;7.47;;;4.50;;
68353;SDS011;55274;43.060;25.618;2023-04-15T06:37:28;6.25;;;3.35;;
68353;SDS011;55274;43.060;25.618;2023-04-15T06:39:55;5.57;;;3.00;;
68353;SDS011;55274;43.060;25.618;2023-04-15T06:42:21;6.05;;;2.13;;
68353;SDS011;55274;43.060;25.618;2023-04-15T06:44:47;4.80;;;1.75;;
68353;SDS011;55274;43.060;25.618;2023-04-15T06:47:13;5.78;;;2.45;;
68353;SDS011;55274;43.060;25.618;2023-04-15T06:49:39;11.18;;;2.05;;
68353;SDS011;55274;43.060;25.618;2023-04-15T06:52:05;5.10;;;1.73;;
68353;SDS011;55274;43.060;25.618;2023-04-15T06:54:31;5.90;;;1.40;;
68353;SDS011;55274;43.060;25.618;2023-04-15T06:56:57;4.43;;;0.93;;
68353;SDS011;55274;43.060;25.618;2023-04-15T06:59:22;1.23;;;0.80;;
68353;SDS011;55274;43.060;25.618;2023-04-15T07:01:48;4.75;;;1.75;;
68353;SDS011;55274;43.060;25.618;2023-04-15T07:04:14;7.15;;;2.05;;
68353;SDS011;55274;43.060;25.618;2023-04-15T07:06:40;2.15;;;1.35;;
68353;SDS011;55274;43.060;25.618;2023-04-15T07:09:06;5.55;;;1.35;;
68353;SDS011;55274;43.060;25.618;2023-04-15T07:11:32;9.88;;;3.45;;
68353;SDS011;55274;43.060;25.618;2023-04-15T07:13:58;4.65;;;1.40;;
68353;SDS011;55274;43.060;25.618;2023-04-15T07:16:24;2.53;;;1.13;;
68353;SDS011;55274;43.060;25.618;2023-04-15T07:18:50;3.45;;;1.20;;
68353;SDS011;55274;43.060;25.618;2023-04-15T07:21:15;3.63;;;1.27;;
68353;SDS011;55274;43.060;25.618;2023-04-15T07:23:41;1.60;;;0.80;;
68353;SDS011;55274;43.060;25.618;2023-04-15T07:26:07;7.45;;;1.75;;
68353;SDS011;55274;43.060;25.618;2023-04-15T07:28:33;3.17;;;1.90;;
68353;SDS011;55274;43.060;25.618;2023-04-15T07:30:59;3.47;;;1.00;;
68353;SDS011;55274;43.060;25.618;2023-04-15T07:33:25;5.03;;;1.67;;
68353;SDS011;55274;43.060;25.618;2023-04-15T07:35:51;4.18;;;1.30;;
68353;SDS011;55274;43.060;25.618;2023-04-15T07:38:17;4.43;;;0.88;;
68353;SDS011;55274;43.060;25.618;2023-04-15T07:40:42;2.22;;;0.93;;
68353;SDS011;55274;43.060;25.618;2023-04-15T07:43:08;6.45;;;1.35;;
68353;SDS011;55274;43.060;25.618;2023-04-15T07:45:34;4.22;;;1.20;;
68353;SDS011;55274;43.060;25.618;2023-04-15T07:48:01;2.75;;;1.20;;
68353;SDS011;55274;43.060;25.618;2023-04-15T07:50:27;3.25;;;0.90;;
68353;SDS011;55274;43.060;25.618;2023-04-15T07:52:53;3.15;;;1.40;;
68353;SDS011;55274;43.060;25.618;2023-04-15T07:55:19;4.45;;;1.40;;
68353;SDS011;55274;43.060;25.618;2023-04-15T07:57:47;1.92;;;0.50;;
68353;SDS011;55274;43.060;25.618;2023-04-15T08:00:13;2.25;;;0.45;;
68353;SDS011;55274;43.060;25.618;2023-04-15T08:02:40;1.52;;;0.50;;
68353;SDS011;55274;43.060;25.618;2023-04-15T08:05:10;1.35;;;0.40;;
68353;SDS011;55274;43.060;25.618;2023-04-15T08:07:38;1.90;;;0.52;;
68353;SDS011;55274;43.060;25.618;2023-04-15T08:10:04;2.75;;;0.60;;
68353;SDS011;55274;43.060;25.618;2023-04-15T08:12:30;1.98;;;0.60;;
68353;SDS011;55274;43.060;25.618;2023-04-15T08:14:56;7.22;;;0.80;;
68353;SDS011;55274;43.060;25.618;2023-04-15T08:17:22;2.30;;;0.40;;
68353;SDS011;55274;43.060;25.618;2023-04-15T08:19:48;3.35;;;0.50;;
68353;SDS011;55274;43.060;25.618;2023-04-15T08:22:14;14.65;;;1.50;;
68353;SDS011;55274;43.060;25.618;2023-04-15T08:24:40;2.92;;;0.50;;
68353;SDS011;55274;43.060;25.618;2023-04-15T08:27:06;2.58;;;0.60;;
68353;SDS011;55274;43.060;25.618;2023-04-15T08:29:32;0.95;;;0.50;;
68353;SDS011;55274;43.060;25.618;2023-04-15T08:31:58;1.40;;;0.50;;
68353;SDS011;55274;43.060;25.618;2023-04-15T08:34:28;1.63;;;0.32;;
68353;SDS011;55274;43.060;25.618;2023-04-15T08:36:54;3.40;;;0.60;;
68353;SDS011;55274;43.060;25.618;2023-04-15T08:39:19;0.95;;;0.40;;
68353;SDS011;55274;43.060;25.618;2023-04-15T08:41:46;2.67;;;0.50;;
68353;SDS011;55274;43.060;25.618;2023-04-15T08:44:28;1.80;;;0.50;;
68353;SDS011;55274;43.060;25.618;2023-04-15T08:47:00;6.53;;;0.90;;
68353;SDS011;55274;43.060;25.618;2023-04-15T08:49:26;2.28;;;0.70;;
68353;SDS011;55274;43.060;25.618;2023-04-15T08:51:54;2.58;;;0.60;;
68353;SDS011;55274;43.060;25.618;2023-04-15T08:54:22;3.40;;;0.50;;
68353;SDS011;55274;43.060;25.618;2023-04-15T08:56:48;2.58;;;0.57;;
68353;SDS011;55274;43.060;25.618;2023-04-15T08:59:14;2.38;;;0.50;;
68353;SDS011;55274;43.060;25.618;2023-04-15T09:01:41;11.20;;;1.33;;
68353;SDS011;55274;43.060;25.618;2023-04-15T09:04:07;3.42;;;0.50;;
68353;SDS011;55274;43.060;25.618;2023-04-15T09:06:34;2.20;;;0.70;;
68353;SDS011;55274;43.060;25.618;2023-04-15T09:09:00;2.47;;;0.80;;
68353;SDS011;55274;43.060;25.618;2023-04-15T09:11:26;1.75;;;0.40;;
68353;SDS011;55274;43.060;25.618;2023-04-15T09:13:54;1.50;;;0.75;;
68353;SDS011;55274;43.060;25.618;2023-04-15T09:16:20;1.70;;;0.60;;
68353;SDS011;55274;43.060;25.618;2023-04-15T09:18:46;3.05;;;0.60;;
68353;SDS011;55274;43.060;25.618;2023-04-15T09:21:13;2.35;;;0.60;;
68353;SDS011;55274;43.060;25.618;2023-04-15T09:23:41;1.33;;;0.60;;
68353;SDS011;55274;43.060;25.618;2023-04-15T09:26:34;3.28;;;0.68;;
68353;SDS011;55274;43.060;25.618;2023-04-15T09:29:08;1.60;;;0.50;;
68353;SDS011;55274;43.060;25.618;2023-04-15T09:31:35;2.70;;;0.60;;
68353;SDS011;55274;43.060;25.618;2023-04-15T09:34:01;1.45;;;0.50;;
68353;SDS011;55274;43.060;25.618;2023-04-15T09:36:27;1.95;;;0.80;;
68353;SDS011;55274;43.060;25.618;2023-04-15T09:38:57;1.08;;;0.40;;
68353;SDS011;55274;43.060;25.618;2023-04-15T09:41:25;1.50;;;0.60;;
68353;SDS011;55274;43.060;25.618;2023-04-15T09:43:51;4.85;;;1.15;;
68353;SDS011;55274;43.060;25.618;2023-04-15T09:46:17;1.55;;;0.65;;
68353;SDS011;55274;43.060;25.618;2023-04-15T09:48:43;0.68;;;0.60;;
68353;SDS011;55274;43.060;25.618;2023-04-15T09:51:09;1.77;;;0.45;;
68353;SDS011;55274;43.060;25.618;2023-04-15T09:53:35;2.30;;;0.63;;
68353;SDS011;55274;43.060;25.618;2023-04-15T09:56:02;2.10;;;0.55;;
68353;SDS011;55274;43.060;25.618;2023-04-15T09:58:29;2.92;;;0.63;;
68353;SDS011;55274;43.060;25.618;2023-04-15T10:00:57;1.90;;;0.60;;
68353;SDS011;55274;43.060;25.618;2023-04-15T10:03:25;2.00;;;0.50;;
68353;SDS011;55274;43.060;25.618;2023-04-15T10:05:53;2.80;;;0.57;;
68353;SDS011;55274;43.060;25.618;2023-04-15T10:08:21;2.15;;;0.65;;
68353;SDS011;55274;43.060;25.618;2023-04-15T10:10:49;1.10;;;0.50;;
68353;SDS011;55274;43.060;25.618;2023-04-15T10:13:22;2.03;;;0.52;;
68353;SDS011;55274;43.060;25.618;2023-04-15T10:16:11;3.35;;;0.70;;
68353;SDS011;55274;43.060;25.618;2023-04-15T10:18:46;1.75;;;0.73;;
68353;SDS011;55274;43.060;25.618;2023-04-15T10:21:15;1.85;;;0.40;;
68353;SDS011;55274;43.060;25.618;2023-04-15T10:23:44;2.88;;;0.60;;
68353;SDS011;55274;43.060;25.618;2023-04-15T10:26:10;2.38;;;0.60;;
68353;SDS011;55274;43.060;25.618;2023-04-15T10:28:42;1.80;;;0.30;;
68353;SDS011;55274;43.060;25.618;2023-04-15T10:31:10;2.03;;;0.70;;
68353;SDS011;55274;43.060;25.618;2023-04-15T10:33:39;2.30;;;0.75;;
68353;SDS011;55274;43.060;25.618;2023-04-15T10:36:06;2.38;;;0.57;;
68353;SDS011;55274;43.060;25.618;2023-04-15T10:46:05;1.40;;;0.90;;
68353;SDS011;55274;43.060;25.618;2023-04-15T10:48:30;3.20;;;0.80;;
68353;SDS011;55274;43.060;25.618;2023-04-15T10:50:57;4.28;;;0.82;;
68353;SDS011;55274;43.060;25.618;2023-04-15T10:53:29;2.17;;;0.90;;
68353;SDS011;55274;43.060;25.618;2023-04-15T10:55:59;3.33;;;0.70;;
68353;SDS011;55274;43.060;25.618;2023-04-15T10:58:24;1.55;;;0.60;;
68353;SDS011;55274;43.060;25.618;2023-04-15T11:00:51;3.10;;;0.90;;
68353;SDS011;55274;43.060;25.618;2023-04-15T11:03:35;2.00;;;0.75;;
68353;SDS011;55274;43.060;25.618;2023-04-15T11:06:05;2.95;;;0.70;;
68353;SDS011;55274;43.060;25.618;2023-04-15T11:14:33;1.58;;;0.60;;
68353;SDS011;55274;43.060;25.618;2023-04-15T11:17:06;1.92;;;0.65;;
68353;SDS011;55274;43.060;25.618;2023-04-15T11:19:38;5.55;;;0.70;;
68353;SDS011;55274;43.060;25.618;2023-04-15T11:22:10;1.58;;;0.50;;
68353;SDS011;55274;43.060;25.618;2023-04-15T11:24:45;3.30;;;0.77;;
68353;SDS011;55274;43.060;25.618;2023-04-15T11:27:21;12.80;;;0.70;;
68353;SDS011;55274;43.060;25.618;2023-04-15T11:29:47;18.80;;;1.23;;
68353;SDS011;55274;43.060;25.618;2023-04-15T11:32:13;6.25;;;0.80;;
68353;SDS011;55274;43.060;25.618;2023-04-15T11:34:39;2.75;;;0.80;;
68353;SDS011;55274;43.060;25.618;2023-04-15T11:37:05;2.50;;;0.68;;
68353;SDS011;55274;43.060;25.618;2023-04-15T11:39:32;1.35;;;0.60;;
68353;SDS011;55274;43.060;25.618;2023-04-15T11:41:58;5.75;;;0.98;;
68353;SDS011;55274;43.060;25.618;2023-04-15T11:44:23;9.35;;;1.27;;
68353;SDS011;55274;43.060;25.618;2023-04-15T11:46:49;12.30;;;1.23;;
68353;SDS011;55274;43.060;25.618;2023-04-15T11:49:27;2.53;;;0.90;;
68353;SDS011;55274;43.060;25.618;2023-04-15T11:51:55;8.02;;;1.13;;
68353;SDS011;55274;43.060;25.618;2023-04-15T11:54:21;3.45;;;0.77;;
68353;SDS011;55274;43.060;25.618;2023-04-15T11:56:50;4.03;;;0.80;;
68353;SDS011;55274;43.060;25.618;2023-04-15T11:59:17;9.30;;;1.27;;
68353;SDS011;55274;43.060;25.618;2023-04-15T12:01:43;10.00;;;1.40;;
68353;SDS011;55274;43.060;25.618;2023-04-15T12:04:15;4.82;;;1.20;;
68353;SDS011;55274;43.060;25.618;2023-04-15T12:06:44;3.17;;;1.33;;
68353;SDS011;55274;43.060;25.618;2023-04-15T12:09:11;5.00;;;1.10;;
68353;SDS011;55274;43.060;25.618;2023-04-15T12:11:39;3.58;;;1.13;;
68353;SDS011;55274;43.060;25.618;2023-04-15T12:14:12;6.43;;;1.00;;
68353;SDS011;55274;43.060;25.618;2023-04-15T12:16:47;3.97;;;1.00;;
68353;SDS011;55274;43.060;25.618;2023-04-15T12:21:50;4.68;;;0.90;;
68353;SDS011;55274;43.060;25.618;2023-04-15T12:24:19;1.58;;;0.80;;
68353;SDS011;55274;43.060;25.618;2023-04-15T12:26:51;1.33;;;0.70;;
68353;SDS011;55274;43.060;25.618;2023-04-15T12:29:19;2.30;;;0.70;;
68353;SDS011;55274;43.060;25.618;2023-04-15T12:31:50;4.80;;;1.10;;
68353;SDS011;55274;43.060;25.618;2023-04-15T12:34:24;1.52;;;0.70;;
68353;SDS011;55274;43.060;25.618;2023-04-15T12:36:56;1.48;;;0.80;;
68353;SDS011;55274;43.060;25.618;2023-04-15T12:39:23;4.38;;;0.88;;
68353;SDS011;55274;43.060;25.618;2023-04-15T12:41:50;5.35;;;1.00;;
68353;SDS011;55274;43.060;25.618;2023-04-15T12:44:17;10.05;;;1.00;;
68353;SDS011;55274;43.060;25.618;2023-04-15T12:46:44;5.95;;;1.30;;
68353;SDS011;55274;43.060;25.618;2023-04-15T12:49:10;4.82;;;1.05;;
68353;SDS011;55274;43.060;25.618;2023-04-15T12:51:36;3.65;;;1.42;;
68353;SDS011;55274;43.060;25.618;2023-04-15T12:54:02;4.57;;;1.40;;
68353;SDS011;55274;43.060;25.618;2023-04-15T12:56:28;7.20;;;1.90;;
68353;SDS011;55274;43.060;25.618;2023-04-15T12:58:54;5.45;;;1.30;;
68353;SDS011;55274;43.060;25.618;2023-04-15T13:01:20;3.22;;;1.48;;
68353;SDS011;55274;43.060;25.618;2023-04-15T13:03:46;3.75;;;1.52;;
68353;SDS011;55274;43.060;25.618;2023-04-15T13:06:12;12.98;;;2.22;;
68353;SDS011;55274;43.060;25.618;2023-04-15T13:08:37;14.35;;;2.00;;
68353;SDS011;55274;43.060;25.618;2023-04-15T13:11:03;6.45;;;1.98;;
68353;SDS011;55274;43.060;25.618;2023-04-15T13:13:30;3.70;;;1.58;;
68353;SDS011;55274;43.060;25.618;2023-04-15T13:15:56;4.45;;;1.85;;
68353;SDS011;55274;43.060;25.618;2023-04-15T13:18:22;4.68;;;1.75;;
68353;SDS011;55274;43.060;25.618;2023-04-15T13:20:48;10.32;;;1.77;;
68353;SDS011;55274;43.060;25.618;2023-04-15T13:23:15;11.38;;;1.88;;
68353;SDS011;55274;43.060;25.618;2023-04-15T13:25:41;2.65;;;1.50;;
68353;SDS011;55274;43.060;25.618;2023-04-15T13:28:07;4.60;;;1.60;;
68353;SDS011;55274;43.060;25.618;2023-04-15T13:30:36;7.90;;;1.92;;
68353;SDS011;55274;43.060;25.618;2023-04-15T13:33:02;11.82;;;2.22;;
68353;SDS011;55274;43.060;25.618;2023-04-15T13:35:28;4.28;;;1.50;;
68353;SDS011;55274;43.060;25.618;2023-04-15T13:37:54;5.30;;;1.60;;
68353;SDS011;55274;43.060;25.618;2023-04-15T13:40:20;5.72;;;1.92;;
68353;SDS011;55274;43.060;25.618;2023-04-15T13:42:46;14.98;;;2.35;;
68353;SDS011;55274;43.060;25.618;2023-04-15T13:45:12;7.82;;;1.88;;
68353;SDS011;55274;43.060;25.618;2023-04-15T13:47:39;6.55;;;1.40;;
68353;SDS011;55274;43.060;25.618;2023-04-15T13:50:05;3.67;;;1.10;;
68353;SDS011;55274;43.060;25.618;2023-04-15T13:52:31;3.13;;;1.52;;
68353;SDS011;55274;43.060;25.618;2023-04-15T13:54:57;4.07;;;1.70;;
68353;SDS011;55274;43.060;25.618;2023-04-15T13:57:22;6.30;;;1.80;;
68353;SDS011;55274;43.060;25.618;2023-04-15T13:59:49;8.05;;;1.80;;
68353;SDS011;55274;43.060;25.618;2023-04-15T14:02:15;7.05;;;1.73;;
68353;SDS011;55274;43.060;25.618;2023-04-15T14:04:41;5.60;;;1.75;;
68353;SDS011;55274;43.060;25.618;2023-04-15T14:07:06;9.00;;;1.80;;
68353;SDS011;55274;43.060;25.618;2023-04-15T14:09:32;2.58;;;1.58;;
68353;SDS011;55274;43.060;25.618;2023-04-15T14:11:59;3.03;;;1.60;;
68353;SDS011;55274;43.060;25.618;2023-04-15T14:14:26;4.80;;;1.50;;
68353;SDS011;55274;43.060;25.618;2023-04-15T14:16:52;2.85;;;1.67;;
68353;SDS011;55274;43.060;25.618;2023-04-15T14:19:18;6.97;;;1.38;;
68353;SDS011;55274;43.060;25.618;2023-04-15T14:21:44;3.50;;;1.35;;
68353;SDS011;55274;43.060;25.618;2023-04-15T14:24:10;13.27;;;1.42;;
68353;SDS011;55274;43.060;25.618;2023-04-15T14:26:36;5.40;;;1.17;;
68353;SDS011;55274;43.060;25.618;2023-04-15T14:29:02;2.80;;;1.27;;
68353;SDS011;55274;43.060;25.618;2023-04-15T14:31:27;4.65;;;1.30;;
68353;SDS011;55274;43.060;25.618;2023-04-15T14:33:53;6.95;;;1.50;;
68353;SDS011;55274;43.060;25.618;2023-04-15T14:36:19;3.85;;;1.17;;
68353;SDS011;55274;43.060;25.618;2023-04-15T14:38:45;6.13;;;1.52;;
68353;SDS011;55274;43.060;25.618;2023-04-15T14:41:10;5.05;;;1.35;;
68353;SDS011;55274;43.060;25.618;2023-04-15T14:43:36;13.65;;;2.45;;
68353;SDS011;55274;43.060;25.618;2023-04-15T14:46:02;3.28;;;1.65;;
68353;SDS011;55274;43.060;25.618;2023-04-15T14:48:29;3.03;;;0.98;;